createdAt,value
2023-05-10T00:01:41.403Z,8.02
2023-05-10T00:04:08.711Z,7.68
2023-05-10T00:06:35.622Z,9.38
2023-05-10T00:09:02.337Z,8.88
2023-05-10T00:19:04.985Z,7.38
2023-05-10T00:21:33.138Z,9.10
2023-05-10T00:24:00.035Z,7.32
2023-05-10T00:26:27.134Z,9.45
2023-05-10T00:28:53.836Z,8.50
2023-05-10T00:31:20.518Z,9.30
2023-05-10T00:33:47.255Z,9.60
2023-05-10T00:36:15.243Z,10.98
2023-05-10T00:38:42.031Z,10.90
2023-05-10T00:41:08.985Z,9.30
2023-05-10T00:43:35.722Z,11.00
2023-05-10T00:46:02.574Z,9.75
2023-05-10T00:48:30.441Z,9.80
2023-05-10T00:50:57.184Z,9.85
2023-05-10T00:53:25.681Z,11.20
2023-05-10T00:55:52.482Z,11.45
2023-05-10T00:58:19.267Z,11.05
2023-05-10T01:00:47.558Z,11.13
2023-05-10T01:03:15.379Z,10.35
2023-05-10T01:05:42.287Z,10.82
2023-05-10T01:08:09.660Z,11.75
2023-05-10T01:10:37.855Z,11.85
2023-05-10T01:13:04.948Z,10.48
2023-05-10T01:15:32.392Z,11.63
2023-05-10T01:18:00.534Z,10.52
2023-05-10T01:20:33.093Z,10.73
2023-05-10T01:23:25.693Z,10.98
2023-05-10T01:26:19.642Z,9.63
2023-05-10T01:29:11.587Z,9.20
2023-05-10T01:32:13.719Z,9.48
2023-05-10T01:34:52.749Z,9.18
2023-05-10T01:37:26.200Z,10.00
2023-05-10T01:40:02.192Z,9.25
2023-05-10T01:42:37.710Z,9.40
2023-05-10T01:45:13.264Z,10.30
2023-05-10T01:47:43.344Z,9.45
2023-05-10T01:50:18.531Z,9.27
2023-05-10T01:52:55.735Z,9.85
2023-05-10T01:55:26.181Z,9.57
2023-05-10T01:58:01.372Z,8.73
2023-05-10T02:00:29.829Z,9.20
2023-05-10T02:02:57.550Z,7.97
2023-05-10T02:05:28.817Z,8.98
2023-05-10T02:07:56.504Z,8.57
2023-05-10T02:10:23.361Z,8.63
2023-05-10T02:12:52.785Z,9.18
2023-05-10T02:15:23.222Z,8.23
2023-05-10T02:17:50.630Z,8.85
2023-05-10T02:20:20.188Z,9.32
2023-05-10T02:22:50.266Z,9.60
2023-05-10T02:25:18.897Z,7.88
2023-05-10T02:27:47.972Z,9.57
2023-05-10T02:30:15.982Z,9.50
2023-05-10T02:32:44.057Z,8.30
2023-05-10T02:35:12.127Z,9.63
2023-05-10T02:37:40.782Z,9.00
2023-05-10T02:40:11.237Z,9.93
2023-05-10T02:42:42.534Z,10.48
2023-05-10T02:45:13.112Z,7.95
2023-05-10T02:47:40.236Z,11.02
2023-05-10T02:50:08.212Z,11.38
2023-05-10T02:52:41.253Z,12.65
2023-05-10T02:55:12.702Z,12.15
2023-05-10T03:00:09.816Z,11.43
2023-05-10T03:02:37.376Z,12.38
2023-05-10T03:05:05.031Z,11.65
2023-05-10T03:07:31.770Z,10.93
2023-05-10T03:09:58.500Z,11.35
2023-05-10T03:12:34.548Z,12.13
2023-05-10T03:15:12.996Z,12.52
2023-05-10T03:17:48.248Z,13.13
2023-05-10T03:20:24.253Z,12.32
2023-05-10T03:22:54.749Z,10.82
2023-05-10T03:25:23.144Z,10.50
2023-05-10T03:27:53.017Z,11.73
2023-05-10T03:30:21.047Z,10.95
2023-05-10T03:32:47.996Z,11.45
2023-05-10T03:35:17.828Z,11.90
2023-05-10T03:37:44.591Z,12.15
2023-05-10T03:40:12.017Z,12.25
2023-05-10T03:42:38.702Z,12.18
2023-05-10T03:45:08.291Z,12.52
2023-05-10T03:47:34.966Z,12.25
2023-05-10T03:50:01.877Z,12.02
2023-05-10T03:52:28.603Z,10.32
2023-05-10T03:54:55.248Z,12.75
2023-05-10T03:57:21.933Z,12.23
2023-05-10T03:59:48.608Z,10.75
2023-05-10T04:02:16.705Z,13.02
2023-05-10T04:04:44.020Z,10.57
2023-05-10T04:07:11.394Z,11.57
2023-05-10T04:09:38.227Z,10.77
2023-05-10T04:12:05.409Z,11.18
2023-05-10T04:14:32.199Z,10.57
2023-05-10T04:16:59.122Z,10.60
2023-05-10T04:19:30.300Z,11.38
2023-05-10T04:21:57.050Z,11.23
2023-05-10T04:24:23.791Z,10.07
2023-05-10T04:26:50.522Z,9.85
2023-05-10T04:29:17.295Z,11.68
2023-05-10T04:31:43.940Z,10.65
2023-05-10T04:34:10.653Z,8.45
2023-05-10T04:36:38.709Z,12.25
2023-05-10T04:39:05.414Z,9.18
2023-05-10T04:41:32.181Z,11.52
2023-05-10T04:43:58.839Z,10.45
2023-05-10T04:46:25.904Z,10.43
2023-05-10T04:48:52.789Z,9.68
2023-05-10T04:51:19.504Z,9.40
2023-05-10T04:54:01.543Z,10.25
2023-05-10T04:56:33.575Z,10.35
2023-05-10T04:59:01.784Z,10.90
2023-05-10T05:01:28.530Z,9.07
2023-05-10T05:03:55.537Z,9.50
2023-05-10T05:06:22.412Z,11.15
2023-05-10T05:08:50.677Z,9.38
2023-05-10T05:11:17.762Z,11.50
2023-05-10T05:13:44.836Z,9.85
2023-05-10T05:16:12.376Z,10.27
2023-05-10T05:18:39.433Z,9.95
2023-05-10T05:21:16.055Z,10.60
2023-05-10T05:23:42.850Z,9.18
2023-05-10T05:26:11.649Z,11.35
2023-05-10T05:28:38.658Z,8.90
2023-05-10T05:31:05.671Z,10.13
2023-05-10T05:33:32.556Z,9.32
2023-05-10T05:36:01.582Z,9.65
2023-05-10T05:38:28.431Z,10.60
2023-05-10T05:40:55.224Z,9.57
2023-05-10T05:43:23.582Z,9.30
2023-05-10T05:45:50.722Z,8.98
2023-05-10T05:48:17.473Z,11.18
2023-05-10T05:50:44.450Z,9.10
2023-05-10T05:53:11.211Z,11.00
2023-05-10T05:55:38.022Z,8.90
2023-05-10T05:58:04.717Z,10.75
2023-05-10T06:00:33.934Z,9.07
2023-05-10T06:03:00.800Z,10.05
2023-05-10T06:05:27.722Z,9.18
2023-05-10T06:07:54.436Z,10.50
2023-05-10T06:10:21.209Z,9.85
2023-05-10T06:12:50.520Z,9.52
2023-05-10T06:15:17.962Z,9.98
2023-05-10T06:17:46.509Z,9.02
2023-05-10T06:20:14.138Z,10.50
2023-05-10T06:22:40.831Z,10.38
2023-05-10T06:25:08.659Z,10.18
2023-05-10T06:27:35.312Z,8.63
2023-05-10T06:30:12.355Z,10.05
2023-05-10T06:32:40.301Z,10.65
2023-05-10T06:35:09.715Z,9.90
2023-05-10T06:37:36.480Z,10.05
2023-05-10T06:40:03.356Z,8.45
2023-05-10T06:42:30.095Z,8.23
2023-05-10T06:44:56.847Z,7.97
2023-05-10T06:47:23.705Z,7.82
2023-05-10T06:49:50.596Z,9.75
2023-05-10T06:52:22.625Z,10.85
2023-05-10T06:54:49.790Z,9.60
2023-05-10T06:57:30.694Z,10.00
2023-05-10T06:59:58.855Z,9.75
2023-05-10T07:02:25.940Z,10.45
2023-05-10T07:04:53.460Z,10.43
2023-05-10T07:07:21.821Z,11.00
2023-05-10T07:09:48.618Z,9.63
2023-05-10T07:12:16.080Z,11.32
2023-05-10T07:14:43.046Z,10.48
2023-05-10T07:17:09.894Z,11.20
2023-05-10T07:19:37.004Z,10.23
2023-05-10T07:22:04.052Z,11.57
2023-05-10T07:24:33.359Z,10.43
2023-05-10T07:27:00.249Z,12.20
2023-05-10T07:29:27.191Z,12.23
2023-05-10T07:31:55.895Z,12.15
2023-05-10T07:34:23.875Z,13.05
2023-05-10T07:36:50.635Z,13.05
2023-05-10T07:39:26.579Z,12.68
2023-05-10T07:41:56.168Z,11.50
2023-05-10T07:44:23.084Z,14.30
2023-05-10T07:46:51.345Z,12.85
2023-05-10T07:49:18.018Z,11.43
2023-05-10T07:51:46.095Z,12.85
2023-05-10T07:54:13.807Z,12.45
2023-05-10T07:56:41.602Z,11.20
2023-05-10T07:59:11.318Z,12.50
2023-05-10T08:01:39.588Z,13.63
2023-05-10T08:04:06.413Z,12.65
2023-05-10T08:06:33.210Z,12.40
2023-05-10T08:09:01.010Z,12.45
2023-05-10T08:11:29.901Z,9.68
2023-05-10T08:13:56.572Z,11.45
2023-05-10T08:16:24.775Z,11.65
2023-05-10T08:18:52.064Z,11.52
2023-05-10T08:21:19.006Z,10.23
2023-05-10T08:23:45.731Z,9.95
2023-05-10T08:26:12.772Z,10.65
2023-05-10T08:28:39.684Z,10.25
2023-05-10T08:31:07.123Z,9.50
2023-05-10T08:33:35.266Z,11.38
2023-05-10T08:36:02.056Z,10.35
2023-05-10T08:38:28.875Z,10.30
2023-05-10T08:40:57.980Z,9.40
2023-05-10T08:43:27.981Z,7.53
2023-05-10T08:45:57.365Z,8.10
2023-05-10T08:48:25.962Z,9.35
2023-05-10T08:50:57.570Z,8.48
2023-05-10T08:53:28.268Z,7.82
2023-05-10T08:55:55.515Z,7.68
2023-05-10T08:58:22.439Z,7.00
2023-05-10T09:00:52.175Z,6.78
2023-05-10T09:03:19.179Z,6.63
2023-05-10T09:05:46.187Z,5.72
2023-05-10T09:08:16.754Z,6.68
2023-05-10T09:10:46.987Z,5.93
2023-05-10T09:13:15.489Z,5.47
2023-05-10T09:15:42.387Z,5.13
2023-05-10T09:18:09.137Z,5.05
2023-05-10T09:20:35.882Z,5.10
2023-05-10T09:23:02.858Z,5.05
2023-05-10T09:25:30.974Z,5.97
2023-05-10T09:27:57.769Z,4.47
2023-05-10T09:30:26.789Z,3.72
2023-05-10T09:32:54.436Z,4.03
2023-05-10T09:35:22.860Z,3.60
2023-05-10T09:37:52.099Z,4.13
2023-05-10T09:40:20.416Z,3.17
2023-05-10T09:42:56.696Z,4.00
2023-05-10T09:45:25.457Z,4.18
2023-05-10T09:47:52.961Z,3.38
2023-05-10T09:50:20.307Z,3.17
2023-05-10T09:52:49.992Z,3.88
2023-05-10T09:55:17.688Z,3.88
2023-05-10T09:57:44.861Z,4.03
2023-05-10T10:00:19.700Z,4.75
2023-05-10T10:02:48.660Z,3.83
2023-05-10T10:05:16.330Z,3.85
2023-05-10T10:07:43.340Z,4.10
2023-05-10T10:10:13.508Z,3.80
2023-05-10T10:12:41.977Z,2.88
2023-05-10T10:15:09.971Z,3.58
2023-05-10T10:17:39.964Z,3.13
2023-05-10T10:20:11.144Z,2.85
2023-05-10T10:22:39.684Z,2.90
2023-05-10T10:25:07.456Z,3.13
2023-05-10T10:27:46.080Z,3.15
2023-05-10T10:30:25.215Z,2.53
2023-05-10T10:33:27.347Z,2.60
2023-05-10T10:35:56.648Z,3.25
2023-05-10T10:38:23.929Z,3.13
2023-05-10T10:41:03.387Z,4.78
2023-05-10T10:43:31.376Z,3.90
2023-05-10T10:46:15.234Z,4.72
2023-05-10T10:48:49.053Z,4.78
2023-05-10T10:51:15.920Z,4.00
2023-05-10T10:53:43.832Z,4.30
2023-05-10T10:56:12.672Z,4.03
2023-05-10T10:58:40.097Z,4.25
2023-05-10T11:01:18.094Z,4.85
2023-05-10T11:04:21.076Z,4.35
2023-05-10T11:06:48.005Z,4.28
2023-05-10T11:09:14.753Z,3.92
2023-05-10T11:11:53.210Z,4.68
2023-05-10T11:14:23.000Z,4.20
2023-05-10T11:16:53.243Z,4.38
2023-05-10T11:19:21.464Z,4.32
2023-05-10T11:21:51.507Z,5.20
2023-05-10T11:24:20.124Z,4.57
2023-05-10T11:26:47.152Z,4.68
2023-05-10T11:29:14.753Z,4.82
2023-05-10T11:31:46.346Z,3.90
2023-05-10T11:34:23.550Z,4.05
2023-05-10T11:36:54.839Z,3.72
2023-05-10T11:39:22.563Z,4.28
2023-05-10T11:41:50.862Z,3.80
2023-05-10T11:44:18.426Z,3.85
2023-05-10T11:46:45.193Z,4.50
2023-05-10T11:49:12.759Z,4.63
2023-05-10T11:51:40.434Z,3.45
2023-05-10T11:54:10.651Z,4.50
2023-05-10T11:56:37.789Z,4.10
2023-05-10T11:59:05.352Z,3.15
2023-05-10T12:01:33.811Z,4.05
2023-05-10T12:04:01.858Z,3.28
2023-05-10T12:06:33.249Z,3.08
2023-05-10T12:11:29.719Z,3.22
2023-05-10T12:13:57.676Z,3.22
2023-05-10T12:16:30.467Z,3.05
2023-05-10T12:18:58.909Z,2.95
2023-05-10T12:21:26.666Z,3.05
2023-05-10T12:23:56.580Z,2.95
2023-05-10T12:26:24.282Z,3.40
2023-05-10T12:28:52.773Z,3.53
2023-05-10T12:31:20.221Z,2.97
2023-05-10T12:33:48.390Z,3.30
2023-05-10T12:36:16.690Z,3.13
2023-05-10T12:38:45.672Z,2.90
2023-05-10T12:41:14.107Z,3.22
2023-05-10T12:43:41.522Z,3.17
2023-05-10T12:46:12.709Z,2.65
2023-05-10T12:48:42.067Z,3.35
2023-05-10T12:51:10.551Z,3.08
2023-05-10T12:53:37.967Z,2.58
2023-05-10T12:56:05.315Z,2.88
2023-05-10T12:58:36.039Z,2.58
2023-05-10T13:01:03.945Z,3.63
2023-05-10T13:03:32.300Z,2.90
2023-05-10T13:05:59.052Z,2.90
2023-05-10T13:08:26.235Z,2.90
2023-05-10T13:10:53.258Z,2.63
2023-05-10T13:13:20.224Z,2.42
2023-05-10T13:15:47.067Z,2.92
2023-05-10T13:18:14.110Z,2.55
2023-05-10T13:20:44.124Z,2.38
2023-05-10T13:23:11.039Z,2.95
2023-05-10T13:25:39.934Z,3.03
2023-05-10T13:28:06.699Z,2.28
2023-05-10T13:30:33.639Z,2.97
2023-05-10T13:33:00.515Z,1.90
2023-05-10T13:35:27.281Z,3.15
2023-05-10T13:37:58.660Z,2.47
2023-05-10T13:40:25.636Z,2.97
2023-05-10T13:43:03.528Z,3.67
2023-05-10T13:45:30.496Z,4.07
2023-05-10T13:47:57.381Z,3.60
2023-05-10T13:50:24.575Z,4.82
2023-05-10T13:52:51.250Z,3.70
2023-05-10T13:55:19.640Z,3.88
2023-05-10T13:57:46.742Z,3.75
2023-05-10T14:00:14.512Z,3.72
2023-05-10T14:02:42.064Z,4.35
2023-05-10T14:05:09.347Z,4.20
2023-05-10T14:07:35.998Z,3.92
2023-05-10T14:10:02.683Z,4.88
2023-05-10T14:12:31.535Z,4.20
2023-05-10T14:14:59.150Z,5.50
2023-05-10T14:17:25.867Z,4.55
2023-05-10T14:19:53.886Z,4.15
2023-05-10T14:22:20.643Z,4.63
2023-05-10T14:24:47.921Z,5.47
2023-05-10T14:27:15.144Z,5.10
2023-05-10T14:29:43.242Z,5.15
2023-05-10T14:32:10.400Z,5.15
2023-05-10T14:34:38.286Z,4.53
2023-05-10T14:37:05.681Z,4.63
2023-05-10T14:39:32.625Z,5.07
2023-05-10T14:41:59.552Z,4.80
2023-05-10T14:44:27.197Z,4.07
2023-05-10T14:46:56.145Z,4.82
2023-05-10T14:49:25.782Z,3.63
2023-05-10T14:51:52.759Z,3.30
2023-05-10T14:54:19.525Z,3.83
2023-05-10T14:56:46.264Z,2.88
2023-05-10T14:59:15.537Z,3.15
2023-05-10T15:01:43.218Z,2.83
2023-05-10T15:04:12.293Z,2.58
2023-05-10T15:06:39.180Z,2.42
2023-05-10T15:09:06.005Z,2.88
2023-05-10T15:11:33.154Z,2.55
2023-05-10T15:13:59.910Z,2.05
2023-05-10T15:16:27.107Z,2.30
2023-05-10T15:18:56.722Z,2.20
2023-05-10T15:21:24.819Z,1.60
2023-05-10T15:23:51.662Z,1.73
2023-05-10T15:26:27.223Z,1.60
2023-05-10T15:28:53.880Z,1.35
2023-05-10T15:31:21.122Z,1.33
2023-05-10T15:34:00.856Z,1.60
2023-05-10T15:36:28.984Z,1.30
2023-05-10T15:38:56.057Z,1.00
2023-05-10T15:41:22.944Z,1.00
2023-05-10T15:43:49.882Z,1.10
2023-05-10T15:46:19.175Z,1.30
2023-05-10T15:48:47.090Z,1.17
2023-05-10T15:51:13.942Z,1.10
2023-05-10T15:53:56.502Z,0.90
2023-05-10T15:56:29.558Z,0.88
2023-05-10T15:58:56.434Z,1.20
2023-05-10T16:01:23.463Z,1.85
2023-05-10T16:03:50.426Z,1.33
2023-05-10T16:06:17.565Z,0.82
2023-05-10T16:08:46.402Z,0.82
2023-05-10T16:11:13.526Z,0.75
2023-05-10T16:13:40.504Z,0.70
2023-05-10T16:16:09.187Z,1.00
2023-05-10T16:18:39.613Z,1.33
2023-05-10T16:21:06.739Z,1.00
2023-05-10T16:23:33.474Z,1.00
2023-05-10T16:26:01.658Z,0.80
2023-05-10T16:28:28.857Z,0.73
2023-05-10T16:30:56.335Z,0.60
2023-05-10T16:33:23.212Z,1.15
2023-05-10T16:35:49.873Z,1.33
2023-05-10T16:38:22.772Z,0.77
2023-05-10T16:40:49.581Z,1.35
2023-05-10T16:43:21.720Z,0.80
2023-05-10T16:45:49.870Z,0.60
2023-05-10T16:48:16.949Z,1.02
2023-05-10T16:50:45.115Z,1.05
2023-05-10T16:53:11.821Z,0.63
2023-05-10T16:55:38.542Z,0.60
2023-05-10T16:58:05.754Z,0.60
2023-05-10T17:00:35.381Z,1.00
2023-05-10T17:03:03.843Z,0.90
2023-05-10T17:05:30.747Z,1.30
2023-05-10T17:07:58.134Z,0.80
2023-05-10T17:10:26.558Z,0.70
2023-05-10T17:12:53.884Z,0.70
2023-05-10T17:15:21.047Z,0.80
2023-05-10T17:17:51.206Z,0.88
2023-05-10T17:20:18.305Z,0.70
2023-05-10T17:22:46.195Z,0.70
2023-05-10T17:25:13.028Z,0.80
2023-05-10T17:27:42.302Z,0.70
2023-05-10T17:30:09.926Z,0.60
2023-05-10T17:32:36.679Z,0.40
2023-05-10T17:35:05.853Z,0.52
2023-05-10T17:37:34.163Z,0.55
2023-05-10T17:40:01.402Z,1.05
2023-05-10T17:42:28.214Z,0.80
2023-05-10T17:44:55.295Z,1.10
2023-05-10T17:47:22.983Z,1.33
2023-05-10T17:49:50.113Z,1.40
2023-05-10T17:52:18.288Z,0.80
2023-05-10T17:54:45.108Z,0.80
2023-05-10T17:57:12.108Z,1.10
2023-05-10T17:59:39.231Z,1.02
2023-05-10T18:02:05.932Z,1.20
2023-05-10T18:04:35.196Z,1.00
2023-05-10T18:07:02.076Z,1.20
2023-05-10T18:09:31.498Z,1.30
2023-05-10T18:11:58.205Z,1.63
2023-05-10T18:14:36.517Z,1.08
2023-05-10T18:17:09.947Z,1.38
2023-05-10T18:19:36.815Z,1.65
2023-05-10T18:22:03.634Z,1.90
2023-05-10T18:24:38.204Z,1.60
2023-05-10T18:27:06.808Z,2.00
2023-05-10T18:29:36.521Z,1.77
2023-05-10T18:32:03.660Z,1.27
2023-05-10T18:34:30.438Z,1.70
2023-05-10T18:37:00.266Z,1.58
2023-05-10T18:39:27.215Z,1.58
2023-05-10T18:41:55.538Z,1.50
2023-05-10T18:44:25.841Z,1.00
2023-05-10T18:46:54.259Z,1.90
2023-05-10T18:49:21.137Z,1.30
2023-05-10T18:51:49.027Z,1.30
2023-05-10T18:54:15.962Z,1.45
2023-05-10T18:56:45.180Z,1.38
2023-05-10T18:59:13.497Z,1.45
2023-05-10T19:01:41.130Z,1.90
2023-05-10T19:04:08.957Z,2.28
2023-05-10T19:06:36.096Z,2.00
2023-05-10T19:09:05.903Z,1.67
2023-05-10T19:11:34.542Z,1.95
2023-05-10T19:14:02.717Z,2.00
2023-05-10T19:16:30.974Z,1.65
2023-05-10T19:18:57.958Z,2.10
2023-05-10T19:21:24.922Z,2.22
2023-05-10T19:23:52.171Z,1.70
2023-05-10T19:26:19.332Z,2.08
2023-05-10T19:28:46.060Z,2.00
2023-05-10T19:31:13.012Z,2.42
2023-05-10T19:33:41.088Z,2.20
2023-05-10T19:36:07.903Z,2.00
2023-05-10T19:38:35.385Z,1.73
2023-05-10T19:41:02.172Z,2.00
2023-05-10T19:43:33.410Z,2.33
2023-05-10T19:46:02.251Z,2.30
2023-05-10T19:48:29.209Z,1.73
2023-05-10T19:51:02.244Z,2.10
2023-05-10T19:53:29.317Z,2.05
2023-05-10T19:56:03.352Z,2.10
2023-05-10T19:58:30.275Z,2.50
2023-05-10T20:00:57.039Z,2.33
2023-05-10T20:03:23.818Z,2.40
2023-05-10T20:05:50.823Z,2.97
2023-05-10T20:08:18.884Z,1.77
2023-05-10T20:10:45.929Z,2.17
2023-05-10T20:13:12.708Z,2.55
2023-05-10T20:15:39.360Z,2.35
2023-05-10T20:18:06.204Z,2.50
2023-05-10T20:20:33.040Z,2.20
2023-05-10T20:23:01.076Z,2.75
2023-05-10T20:25:29.184Z,2.67
2023-05-10T20:27:55.916Z,3.10
2023-05-10T20:30:22.660Z,3.13
2023-05-10T20:32:49.453Z,3.28
2023-05-10T20:35:16.355Z,2.80
2023-05-10T20:37:43.121Z,3.67
2023-05-10T20:40:11.125Z,2.35
2023-05-10T20:42:39.257Z,2.92
2023-05-10T20:45:07.263Z,2.80
2023-05-10T20:47:34.141Z,2.80
2023-05-10T20:50:00.830Z,2.85
2023-05-10T20:52:27.694Z,3.20
2023-05-10T20:54:54.426Z,3.03
2023-05-10T20:57:21.958Z,3.25
2023-05-10T20:59:51.215Z,3.03
2023-05-10T21:02:18.068Z,2.55
2023-05-10T21:04:45.106Z,2.50
2023-05-10T21:07:12.210Z,2.90
2023-05-10T21:09:38.932Z,3.20
2023-05-10T21:12:06.178Z,3.28
2023-05-10T21:14:33.071Z,3.30
2023-05-10T21:17:01.148Z,3.05
2023-05-10T21:19:28.843Z,3.85
2023-05-10T21:21:57.168Z,3.08
2023-05-10T21:24:24.042Z,4.10
2023-05-10T21:26:56.135Z,3.40
2023-05-10T21:29:22.798Z,3.55
2023-05-10T21:31:49.764Z,4.35
2023-05-10T21:34:18.008Z,4.80
2023-05-10T21:36:44.688Z,3.92
2023-05-10T21:39:11.646Z,4.47
2023-05-10T21:41:38.331Z,5.05
2023-05-10T21:44:05.395Z,4.10
2023-05-10T21:46:32.163Z,5.43
2023-05-10T21:48:58.898Z,6.20
2023-05-10T21:51:26.919Z,5.13
2023-05-10T21:53:53.655Z,4.82
2023-05-10T21:56:20.622Z,5.70
2023-05-10T21:58:47.606Z,5.85
2023-05-10T22:01:15.315Z,6.20
2023-05-10T22:03:42.789Z,5.43
2023-05-10T22:06:09.575Z,5.53
2023-05-10T22:08:37.695Z,5.70
2023-05-10T22:11:05.098Z,5.88
2023-05-10T22:13:31.800Z,6.35
2023-05-10T22:15:59.060Z,5.78
2023-05-10T22:18:25.894Z,6.85
2023-05-10T22:20:52.639Z,6.55
2023-05-10T22:23:19.401Z,5.60
2023-05-10T22:25:47.521Z,7.05
2023-05-10T22:28:14.566Z,6.97
2023-05-10T22:30:41.839Z,7.28
2023-05-10T22:33:08.732Z,6.50
2023-05-10T22:35:35.681Z,6.47
2023-05-10T22:38:02.475Z,5.28
2023-05-10T22:40:29.184Z,6.03
2023-05-10T22:42:57.381Z,5.97
2023-05-10T22:45:24.135Z,7.22
2023-05-10T22:47:51.196Z,7.90
2023-05-10T22:50:18.654Z,7.25
2023-05-10T22:52:45.773Z,7.47
2023-05-10T22:55:12.511Z,7.38
2023-05-10T22:57:39.480Z,6.93
2023-05-10T23:00:09.350Z,6.65
2023-05-10T23:02:36.252Z,7.35
2023-05-10T23:05:03.279Z,6.97
2023-05-10T23:07:30.060Z,7.68
2023-05-10T23:09:56.838Z,6.90
2023-05-10T23:12:24.047Z,6.90
2023-05-10T23:14:56.576Z,8.30
2023-05-10T23:17:24.795Z,8.23
2023-05-10T23:19:51.517Z,7.60
2023-05-10T23:22:18.284Z,7.53
2023-05-10T23:24:44.929Z,8.68
2023-05-10T23:27:11.682Z,8.48
2023-05-10T23:29:38.373Z,8.98
2023-05-10T23:32:05.712Z,8.35
2023-05-10T23:34:33.895Z,8.55
2023-05-10T23:37:00.696Z,8.38
2023-05-10T23:39:27.449Z,8.65
2023-05-10T23:41:54.647Z,9.25
2023-05-10T23:44:21.293Z,8.30
2023-05-10T23:46:47.914Z,8.57
2023-05-10T23:49:14.769Z,7.57
2023-05-10T23:51:42.856Z,8.38
2023-05-10T23:54:09.642Z,7.22
2023-05-10T23:56:36.515Z,7.65
2023-05-10T23:59:03.364Z,8.15
